sensor_id;sensor_type;location;lat;lon;timestamp;P1;durP1;ratioP1;P2;durP2;ratioP2
44272;SDS011;29964;17.182;-96.766;2023-06-22T00:02:05;2.08;;;1.30;;
44272;SDS011;29964;17.182;-96.766;2023-06-22T00:04:31;2.50;;;1.52;;
44272;SDS011;29964;17.182;-96.766;2023-06-22T00:06:58;1.55;;;1.25;;
44272;SDS011;29964;17.182;-96.766;2023-06-22T00:09:25;2.72;;;1.73;;
44272;SDS011;29964;17.182;-96.766;2023-06-22T00:11:52;4.93;;;2.72;;
44272;SDS011;29964;17.182;-96.766;2023-06-22T00:14:18;4.88;;;2.70;;
44272;SDS011;29964;17.182;-96.766;2023-06-22T00:16:45;3.10;;;1.85;;
44272;SDS011;29964;17.182;-96.766;2023-06-22T00:19:14;7.63;;;2.42;;
44272;SDS011;29964;17.182;-96.766;2023-06-22T00:21:41;13.13;;;1.88;;
44272;SDS011;29964;17.182;-96.766;2023-06-22T00:24:08;2.55;;;1.58;;
44272;SDS011;29964;17.182;-96.766;2023-06-22T00:26:35;15.60;;;2.42;;
44272;SDS011;29964;17.182;-96.766;2023-06-22T00:29:01;3.58;;;1.67;;
44272;SDS011;29964;17.182;-96.766;2023-06-22T00:31:28;2.60;;;1.55;;
44272;SDS011;29964;17.182;-96.766;2023-06-22T00:33:55;2.63;;;1.80;;
44272;SDS011;29964;17.182;-96.766;2023-06-22T00:36:22;1.98;;;1.50;;
44272;SDS011;29964;17.182;-96.766;2023-06-22T00:38:50;3.03;;;1.73;;
44272;SDS011;29964;17.182;-96.766;2023-06-22T00:41:17;12.48;;;2.45;;
44272;SDS011;29964;17.182;-96.766;2023-06-22T00:43:44;3.75;;;1.58;;
44272;SDS011;29964;17.182;-96.766;2023-06-22T00:46:11;2.67;;;1.83;;
44272;SDS011;29964;17.182;-96.766;2023-06-22T00:48:38;2.10;;;1.45;;
44272;SDS011;29964;17.182;-96.766;2023-06-22T00:51:07;2.47;;;1.60;;
44272;SDS011;29964;17.182;-96.766;2023-06-22T00:53:34;5.90;;;1.58;;
44272;SDS011;29964;17.182;-96.766;2023-06-22T00:56:02;2.38;;;1.77;;
44272;SDS011;29964;17.182;-96.766;2023-06-22T00:58:29;1.88;;;1.45;;
44272;SDS011;29964;17.182;-96.766;2023-06-22T01:00:56;3.47;;;2.00;;
44272;SDS011;29964;17.182;-96.766;2023-06-22T01:03:23;2.35;;;1.60;;
44272;SDS011;29964;17.182;-96.766;2023-06-22T01:05:50;3.10;;;2.00;;
44272;SDS011;29964;17.182;-96.766;2023-06-22T01:10:47;2.75;;;1.50;;
44272;SDS011;29964;17.182;-96.766;2023-06-22T01:15:58;4.00;;;2.55;;
44272;SDS011;29964;17.182;-96.766;2023-06-22T01:18:26;9.88;;;2.25;;
44272;SDS011;29964;17.182;-96.766;2023-06-22T01:20:55;2.10;;;1.60;;
44272;SDS011;29964;17.182;-96.766;2023-06-22T01:30:57;2.65;;;1.65;;
44272;SDS011;29964;17.182;-96.766;2023-06-22T01:33:34;2.50;;;1.85;;
44272;SDS011;29964;17.182;-96.766;2023-06-22T01:36:02;2.92;;;1.88;;
44272;SDS011;29964;17.182;-96.766;2023-06-22T01:38:29;6.40;;;2.40;;
44272;SDS011;29964;17.182;-96.766;2023-06-22T01:40:59;2.95;;;2.03;;
44272;SDS011;29964;17.182;-96.766;2023-06-22T01:43:26;4.32;;;1.67;;
44272;SDS011;29964;17.182;-96.766;2023-06-22T01:45:54;12.43;;;2.78;;
44272;SDS011;29964;17.182;-96.766;2023-06-22T01:48:21;4.65;;;2.35;;
44272;SDS011;29964;17.182;-96.766;2023-06-22T01:50:47;3.40;;;2.45;;
44272;SDS011;29964;17.182;-96.766;2023-06-22T01:53:14;4.90;;;2.35;;
44272;SDS011;29964;17.182;-96.766;2023-06-22T01:55:41;8.50;;;1.83;;
44272;SDS011;29964;17.182;-96.766;2023-06-22T01:58:08;2.25;;;1.45;;
44272;SDS011;29964;17.182;-96.766;2023-06-22T02:00:37;3.65;;;1.95;;
44272;SDS011;29964;17.182;-96.766;2023-06-22T02:03:18;4.38;;;2.20;;
44272;SDS011;29964;17.182;-96.766;2023-06-22T02:05:56;4.43;;;1.90;;
44272;SDS011;29964;17.182;-96.766;2023-06-22T02:08:25;8.02;;;1.67;;
44272;SDS011;29964;17.182;-96.766;2023-06-22T02:10:54;2.33;;;1.67;;
44272;SDS011;29964;17.182;-96.766;2023-06-22T02:13:23;3.15;;;2.00;;
44272;SDS011;29964;17.182;-96.766;2023-06-22T02:15:50;4.88;;;2.78;;
44272;SDS011;29964;17.182;-96.766;2023-06-22T02:18:17;3.10;;;1.83;;
44272;SDS011;29964;17.182;-96.766;2023-06-22T02:20:46;4.30;;;2.80;;
44272;SDS011;29964;17.182;-96.766;2023-06-22T02:23:12;2.97;;;2.40;;
44272;SDS011;29964;17.182;-96.766;2023-06-22T02:25:39;3.53;;;1.87;;
44272;SDS011;29964;17.182;-96.766;2023-06-22T02:28:09;4.47;;;2.00;;
44272;SDS011;29964;17.182;-96.766;2023-06-22T02:30:36;2.63;;;1.83;;
44272;SDS011;29964;17.182;-96.766;2023-06-22T02:33:03;3.37;;;2.20;;
44272;SDS011;29964;17.182;-96.766;2023-06-22T02:35:30;3.23;;;2.10;;
44272;SDS011;29964;17.182;-96.766;2023-06-22T02:37:58;3.73;;;2.20;;
44272;SDS011;29964;17.182;-96.766;2023-06-22T02:40:27;3.33;;;2.10;;
44272;SDS011;29964;17.182;-96.766;2023-06-22T02:42:55;4.27;;;2.67;;
44272;SDS011;29964;17.182;-96.766;2023-06-22T02:45:23;4.70;;;2.63;;
44272;SDS011;29964;17.182;-96.766;2023-06-22T02:47:52;3.13;;;2.17;;
44272;SDS011;29964;17.182;-96.766;2023-06-22T02:50:19;4.13;;;2.90;;
44272;SDS011;29964;17.182;-96.766;2023-06-22T02:52:45;3.50;;;2.50;;
44272;SDS011;29964;17.182;-96.766;2023-06-22T02:55:12;3.87;;;2.20;;
44272;SDS011;29964;17.182;-96.766;2023-06-22T02:57:39;6.07;;;2.97;;
44272;SDS011;29964;17.182;-96.766;2023-06-22T03:00:09;3.07;;;2.27;;
44272;SDS011;29964;17.182;-96.766;2023-06-22T03:02:46;3.27;;;2.57;;
44272;SDS011;29964;17.182;-96.766;2023-06-22T03:05:13;2.60;;;2.00;;
44272;SDS011;29964;17.182;-96.766;2023-06-22T03:07:43;4.50;;;3.13;;
44272;SDS011;29964;17.182;-96.766;2023-06-22T03:10:11;5.67;;;3.23;;
44272;SDS011;29964;17.182;-96.766;2023-06-22T03:12:38;4.40;;;2.30;;
44272;SDS011;29964;17.182;-96.766;2023-06-22T03:15:05;4.53;;;2.53;;
44272;SDS011;29964;17.182;-96.766;2023-06-22T03:17:33;5.83;;;2.60;;
44272;SDS011;29964;17.182;-96.766;2023-06-22T03:20:00;15.67;;;2.87;;
44272;SDS011;29964;17.182;-96.766;2023-06-22T03:22:34;5.47;;;2.77;;
44272;SDS011;29964;17.182;-96.766;2023-06-22T03:25:01;9.83;;;2.73;;
44272;SDS011;29964;17.182;-96.766;2023-06-22T03:27:28;2.80;;;2.07;;
44272;SDS011;29964;17.182;-96.766;2023-06-22T03:29:56;4.10;;;2.80;;
44272;SDS011;29964;17.182;-96.766;2023-06-22T03:32:23;5.03;;;2.80;;
44272;SDS011;29964;17.182;-96.766;2023-06-22T03:34:53;4.50;;;2.03;;
44272;SDS011;29964;17.182;-96.766;2023-06-22T03:37:27;2.30;;;1.90;;
44272;SDS011;29964;17.182;-96.766;2023-06-22T03:39:54;2.90;;;2.17;;
44272;SDS011;29964;17.182;-96.766;2023-06-22T03:42:21;4.70;;;3.10;;
44272;SDS011;29964;17.182;-96.766;2023-06-22T03:44:48;4.07;;;2.90;;
44272;SDS011;29964;17.182;-96.766;2023-06-22T03:47:15;5.13;;;2.80;;
44272;SDS011;29964;17.182;-96.766;2023-06-22T03:49:41;3.87;;;2.37;;
44272;SDS011;29964;17.182;-96.766;2023-06-22T03:52:08;7.33;;;2.17;;
44272;SDS011;29964;17.182;-96.766;2023-06-22T03:54:38;4.00;;;2.40;;
44272;SDS011;29964;17.182;-96.766;2023-06-22T03:57:06;8.57;;;2.60;;
44272;SDS011;29964;17.182;-96.766;2023-06-22T03:59:33;5.27;;;2.57;;
44272;SDS011;29964;17.182;-96.766;2023-06-22T04:02:00;4.30;;;2.80;;
44272;SDS011;29964;17.182;-96.766;2023-06-22T04:04:27;5.67;;;3.03;;
44272;SDS011;29964;17.182;-96.766;2023-06-22T04:06:54;4.47;;;3.43;;
44272;SDS011;29964;17.182;-96.766;2023-06-22T04:09:21;11.80;;;4.03;;
44272;SDS011;29964;17.182;-96.766;2023-06-22T04:11:47;3.10;;;2.47;;
44272;SDS011;29964;17.182;-96.766;2023-06-22T04:14:14;5.43;;;2.47;;
44272;SDS011;29964;17.182;-96.766;2023-06-22T04:16:41;4.27;;;3.03;;
44272;SDS011;29964;17.182;-96.766;2023-06-22T04:19:08;5.27;;;2.83;;
44272;SDS011;29964;17.182;-96.766;2023-06-22T04:21:41;4.73;;;3.43;;
44272;SDS011;29964;17.182;-96.766;2023-06-22T04:24:10;7.23;;;3.37;;
44272;SDS011;29964;17.182;-96.766;2023-06-22T04:26:37;7.03;;;3.93;;
44272;SDS011;29964;17.182;-96.766;2023-06-22T04:29:07;4.27;;;2.80;;
44272;SDS011;29964;17.182;-96.766;2023-06-22T04:31:34;8.90;;;3.93;;
44272;SDS011;29964;17.182;-96.766;2023-06-22T04:34:09;4.40;;;3.17;;
44272;SDS011;29964;17.182;-96.766;2023-06-22T04:36:43;5.90;;;3.07;;
44272;SDS011;29964;17.182;-96.766;2023-06-22T04:39:18;10.63;;;3.70;;
44272;SDS011;29964;17.182;-96.766;2023-06-22T04:41:45;11.57;;;2.63;;
44272;SDS011;29964;17.182;-96.766;2023-06-22T04:44:13;8.70;;;3.37;;
44272;SDS011;29964;17.182;-96.766;2023-06-22T04:46:50;4.00;;;2.37;;
44272;SDS011;29964;17.182;-96.766;2023-06-22T04:49:19;5.87;;;3.10;;
44272;SDS011;29964;17.182;-96.766;2023-06-22T04:51:46;6.20;;;3.63;;
44272;SDS011;29964;17.182;-96.766;2023-06-22T04:54:13;3.97;;;2.50;;
44272;SDS011;29964;17.182;-96.766;2023-06-22T04:56:40;6.80;;;3.93;;
44272;SDS011;29964;17.182;-96.766;2023-06-22T04:59:06;6.60;;;4.07;;
44272;SDS011;29964;17.182;-96.766;2023-06-22T05:01:33;4.83;;;3.80;;
44272;SDS011;29964;17.182;-96.766;2023-06-22T05:04:00;7.07;;;4.03;;
44272;SDS011;29964;17.182;-96.766;2023-06-22T05:06:27;4.83;;;2.40;;
44272;SDS011;29964;17.182;-96.766;2023-06-22T05:08:55;3.00;;;2.20;;
44272;SDS011;29964;17.182;-96.766;2023-06-22T05:11:28;7.77;;;3.20;;
44272;SDS011;29964;17.182;-96.766;2023-06-22T05:13:59;6.97;;;3.23;;
44272;SDS011;29964;17.182;-96.766;2023-06-22T05:16:28;4.93;;;3.80;;
44272;SDS011;29964;17.182;-96.766;2023-06-22T05:18:55;3.97;;;3.03;;
44272;SDS011;29964;17.182;-96.766;2023-06-22T05:21:25;3.23;;;2.47;;
44272;SDS011;29964;17.182;-96.766;2023-06-22T05:23:53;4.60;;;3.30;;
44272;SDS011;29964;17.182;-96.766;2023-06-22T05:26:21;4.77;;;2.70;;
44272;SDS011;29964;17.182;-96.766;2023-06-22T05:28:48;5.10;;;4.00;;
44272;SDS011;29964;17.182;-96.766;2023-06-22T05:31:15;12.40;;;3.87;;
44272;SDS011;29964;17.182;-96.766;2023-06-22T05:33:43;7.50;;;3.43;;
44272;SDS011;29964;17.182;-96.766;2023-06-22T05:36:09;6.60;;;3.87;;
44272;SDS011;29964;17.182;-96.766;2023-06-22T05:38:38;5.10;;;2.67;;
44272;SDS011;29964;17.182;-96.766;2023-06-22T05:41:05;5.67;;;3.63;;
44272;SDS011;29964;17.182;-96.766;2023-06-22T05:43:32;6.30;;;3.43;;
44272;SDS011;29964;17.182;-96.766;2023-06-22T05:45:59;4.77;;;3.70;;
44272;SDS011;29964;17.182;-96.766;2023-06-22T05:48:26;4.30;;;3.10;;
44272;SDS011;29964;17.182;-96.766;2023-06-22T05:50:53;6.63;;;4.00;;
44272;SDS011;29964;17.182;-96.766;2023-06-22T05:53:20;6.00;;;4.57;;
44272;SDS011;29964;17.182;-96.766;2023-06-22T05:55:47;4.83;;;3.43;;
44272;SDS011;29964;17.182;-96.766;2023-06-22T05:58:14;4.83;;;4.07;;
44272;SDS011;29964;17.182;-96.766;2023-06-22T06:00:41;23.60;;;4.17;;
44272;SDS011;29964;17.182;-96.766;2023-06-22T06:03:08;8.77;;;3.87;;
44272;SDS011;29964;17.182;-96.766;2023-06-22T06:05:36;4.90;;;3.83;;
44272;SDS011;29964;17.182;-96.766;2023-06-22T06:08:03;10.47;;;3.63;;
44272;SDS011;29964;17.182;-96.766;2023-06-22T06:10:31;11.70;;;3.77;;
44272;SDS011;29964;17.182;-96.766;2023-06-22T06:12:58;7.17;;;4.40;;
44272;SDS011;29964;17.182;-96.766;2023-06-22T06:15:27;5.00;;;3.93;;
44272;SDS011;29964;17.182;-96.766;2023-06-22T06:17:54;3.07;;;2.67;;
44272;SDS011;29964;17.182;-96.766;2023-06-22T06:20:22;8.63;;;4.13;;
44272;SDS011;29964;17.182;-96.766;2023-06-22T06:22:49;7.90;;;4.87;;
44272;SDS011;29964;17.182;-96.766;2023-06-22T06:25:16;6.37;;;4.47;;
44272;SDS011;29964;17.182;-96.766;2023-06-22T06:27:49;5.13;;;3.50;;
44272;SDS011;29964;17.182;-96.766;2023-06-22T06:30:16;6.50;;;4.47;;
44272;SDS011;29964;17.182;-96.766;2023-06-22T06:32:44;3.07;;;2.70;;
44272;SDS011;29964;17.182;-96.766;2023-06-22T06:35:12;5.37;;;3.63;;
44272;SDS011;29964;17.182;-96.766;2023-06-22T06:37:40;6.83;;;4.60;;
44272;SDS011;29964;17.182;-96.766;2023-06-22T06:40:07;5.53;;;4.43;;
44272;SDS011;29964;17.182;-96.766;2023-06-22T06:42:36;5.87;;;4.20;;
44272;SDS011;29964;17.182;-96.766;2023-06-22T06:45:04;4.97;;;3.93;;
44272;SDS011;29964;17.182;-96.766;2023-06-22T06:47:31;4.63;;;3.87;;
44272;SDS011;29964;17.182;-96.766;2023-06-22T06:49:58;7.40;;;3.67;;
44272;SDS011;29964;17.182;-96.766;2023-06-22T06:52:25;6.53;;;5.20;;
44272;SDS011;29964;17.182;-96.766;2023-06-22T06:54:52;5.67;;;3.37;;
44272;SDS011;29964;17.182;-96.766;2023-06-22T06:57:18;5.90;;;4.13;;
44272;SDS011;29964;17.182;-96.766;2023-06-22T06:59:45;10.03;;;3.73;;
44272;SDS011;29964;17.182;-96.766;2023-06-22T07:02:12;6.47;;;4.70;;
44272;SDS011;29964;17.182;-96.766;2023-06-22T07:04:40;4.20;;;3.43;;
44272;SDS011;29964;17.182;-96.766;2023-06-22T07:07:07;6.17;;;4.23;;
44272;SDS011;29964;17.182;-96.766;2023-06-22T07:09:33;8.60;;;4.33;;
44272;SDS011;29964;17.182;-96.766;2023-06-22T07:12:00;4.17;;;3.07;;
44272;SDS011;29964;17.182;-96.766;2023-06-22T07:14:27;6.67;;;3.53;;
44272;SDS011;29964;17.182;-96.766;2023-06-22T07:16:54;4.67;;;3.80;;
44272;SDS011;29964;17.182;-96.766;2023-06-22T07:19:27;5.03;;;4.30;;
44272;SDS011;29964;17.182;-96.766;2023-06-22T07:21:54;5.40;;;3.50;;
44272;SDS011;29964;17.182;-96.766;2023-06-22T07:24:21;6.07;;;5.23;;
44272;SDS011;29964;17.182;-96.766;2023-06-22T07:26:48;8.90;;;5.93;;
44272;SDS011;29964;17.182;-96.766;2023-06-22T07:29:18;7.00;;;4.93;;
44272;SDS011;29964;17.182;-96.766;2023-06-22T07:31:46;6.63;;;4.83;;
44272;SDS011;29964;17.182;-96.766;2023-06-22T07:34:15;6.20;;;3.70;;
44272;SDS011;29964;17.182;-96.766;2023-06-22T07:36:41;5.33;;;3.80;;
44272;SDS011;29964;17.182;-96.766;2023-06-22T07:39:08;8.13;;;4.90;;
44272;SDS011;29964;17.182;-96.766;2023-06-22T07:41:35;7.03;;;5.50;;
44272;SDS011;29964;17.182;-96.766;2023-06-22T07:44:02;7.37;;;4.80;;
44272;SDS011;29964;17.182;-96.766;2023-06-22T07:46:29;3.97;;;3.33;;
44272;SDS011;29964;17.182;-96.766;2023-06-22T07:48:56;5.23;;;3.63;;
44272;SDS011;29964;17.182;-96.766;2023-06-22T07:51:23;7.10;;;5.57;;
44272;SDS011;29964;17.182;-96.766;2023-06-22T07:53:50;3.97;;;2.93;;
44272;SDS011;29964;17.182;-96.766;2023-06-22T07:56:17;7.03;;;5.60;;
44272;SDS011;29964;17.182;-96.766;2023-06-22T07:58:47;8.33;;;5.20;;
44272;SDS011;29964;17.182;-96.766;2023-06-22T08:01:14;5.43;;;2.90;;
44272;SDS011;29964;17.182;-96.766;2023-06-22T08:03:42;5.30;;;3.60;;
44272;SDS011;29964;17.182;-96.766;2023-06-22T08:06:09;9.40;;;4.67;;
44272;SDS011;29964;17.182;-96.766;2023-06-22T08:08:36;7.23;;;3.00;;
44272;SDS011;29964;17.182;-96.766;2023-06-22T08:11:03;7.20;;;4.33;;
44272;SDS011;29964;17.182;-96.766;2023-06-22T08:13:31;3.73;;;3.13;;
44272;SDS011;29964;17.182;-96.766;2023-06-22T08:15:58;5.97;;;4.27;;
44272;SDS011;29964;17.182;-96.766;2023-06-22T08:18:24;11.63;;;5.40;;
44272;SDS011;29964;17.182;-96.766;2023-06-22T08:20:51;6.23;;;4.63;;
44272;SDS011;29964;17.182;-96.766;2023-06-22T08:23:18;7.27;;;5.20;;
44272;SDS011;29964;17.182;-96.766;2023-06-22T08:25:45;17.80;;;5.23;;
44272;SDS011;29964;17.182;-96.766;2023-06-22T08:28:13;11.33;;;5.83;;
44272;SDS011;29964;17.182;-96.766;2023-06-22T08:30:40;6.33;;;4.67;;
44272;SDS011;29964;17.182;-96.766;2023-06-22T08:33:07;9.07;;;5.27;;
44272;SDS011;29964;17.182;-96.766;2023-06-22T08:35:33;9.90;;;6.90;;
44272;SDS011;29964;17.182;-96.766;2023-06-22T08:38:00;7.20;;;5.60;;
44272;SDS011;29964;17.182;-96.766;2023-06-22T08:40:27;8.47;;;6.00;;
44272;SDS011;29964;17.182;-96.766;2023-06-22T08:42:54;6.53;;;4.70;;
44272;SDS011;29964;17.182;-96.766;2023-06-22T08:45:21;4.30;;;3.27;;
44272;SDS011;29964;17.182;-96.766;2023-06-22T08:47:48;5.73;;;4.77;;
44272;SDS011;29964;17.182;-96.766;2023-06-22T08:50:15;8.53;;;5.90;;
44272;SDS011;29964;17.182;-96.766;2023-06-22T08:52:42;7.03;;;4.67;;
44272;SDS011;29964;17.182;-96.766;2023-06-22T08:55:09;5.83;;;4.37;;
44272;SDS011;29964;17.182;-96.766;2023-06-22T08:57:36;7.93;;;4.83;;
44272;SDS011;29964;17.182;-96.766;2023-06-22T09:00:05;11.10;;;4.17;;
44272;SDS011;29964;17.182;-96.766;2023-06-22T09:02:36;11.50;;;6.83;;
44272;SDS011;29964;17.182;-96.766;2023-06-22T09:05:05;9.23;;;4.93;;
44272;SDS011;29964;17.182;-96.766;2023-06-22T09:07:32;13.27;;;5.93;;
44272;SDS011;29964;17.182;-96.766;2023-06-22T09:09:59;8.53;;;5.90;;
44272;SDS011;29964;17.182;-96.766;2023-06-22T09:12:26;11.00;;;5.77;;
44272;SDS011;29964;17.182;-96.766;2023-06-22T09:14:56;7.00;;;4.40;;
44272;SDS011;29964;17.182;-96.766;2023-06-22T09:17:23;6.63;;;5.43;;
44272;SDS011;29964;17.182;-96.766;2023-06-22T09:19:49;10.60;;;5.67;;
44272;SDS011;29964;17.182;-96.766;2023-06-22T09:22:16;5.67;;;4.40;;
44272;SDS011;29964;17.182;-96.766;2023-06-22T09:24:43;5.50;;;4.67;;
44272;SDS011;29964;17.182;-96.766;2023-06-22T09:27:10;7.93;;;5.87;;
44272;SDS011;29964;17.182;-96.766;2023-06-22T09:29:36;7.63;;;5.23;;
44272;SDS011;29964;17.182;-96.766;2023-06-22T09:32:03;7.53;;;6.00;;
44272;SDS011;29964;17.182;-96.766;2023-06-22T09:34:30;7.93;;;6.20;;
44272;SDS011;29964;17.182;-96.766;2023-06-22T09:36:57;9.33;;;6.57;;
44272;SDS011;29964;17.182;-96.766;2023-06-22T09:39:26;11.57;;;5.17;;
44272;SDS011;29964;17.182;-96.766;2023-06-22T09:41:52;7.63;;;4.80;;
44272;SDS011;29964;17.182;-96.766;2023-06-22T09:44:19;11.63;;;6.93;;
44272;SDS011;29964;17.182;-96.766;2023-06-22T09:46:46;7.93;;;5.87;;
44272;SDS011;29964;17.182;-96.766;2023-06-22T09:49:13;10.23;;;7.30;;
44272;SDS011;29964;17.182;-96.766;2023-06-22T09:51:39;12.80;;;7.17;;
44272;SDS011;29964;17.182;-96.766;2023-06-22T09:54:06;8.60;;;6.43;;
44272;SDS011;29964;17.182;-96.766;2023-06-22T09:56:33;13.47;;;7.40;;
44272;SDS011;29964;17.182;-96.766;2023-06-22T09:58:59;12.43;;;7.23;;
44272;SDS011;29964;17.182;-96.766;2023-06-22T10:01:26;10.73;;;6.70;;
44272;SDS011;29964;17.182;-96.766;2023-06-22T10:03:53;9.27;;;6.87;;
44272;SDS011;29964;17.182;-96.766;2023-06-22T10:06:21;5.60;;;4.83;;
44272;SDS011;29964;17.182;-96.766;2023-06-22T10:08:49;7.70;;;6.23;;
44272;SDS011;29964;17.182;-96.766;2023-06-22T10:11:16;11.10;;;6.87;;
44272;SDS011;29964;17.182;-96.766;2023-06-22T10:13:43;8.23;;;6.17;;
44272;SDS011;29964;17.182;-96.766;2023-06-22T10:16:10;9.10;;;6.53;;
44272;SDS011;29964;17.182;-96.766;2023-06-22T10:18:37;7.27;;;5.50;;
44272;SDS011;29964;17.182;-96.766;2023-06-22T10:21:03;7.97;;;5.90;;
44272;SDS011;29964;17.182;-96.766;2023-06-22T10:23:30;8.43;;;5.93;;
44272;SDS011;29964;17.182;-96.766;2023-06-22T10:25:57;14.30;;;7.30;;
44272;SDS011;29964;17.182;-96.766;2023-06-22T10:28:24;10.00;;;6.70;;
44272;SDS011;29964;17.182;-96.766;2023-06-22T10:30:50;10.70;;;6.70;;
44272;SDS011;29964;17.182;-96.766;2023-06-22T10:33:17;8.63;;;6.77;;
44272;SDS011;29964;17.182;-96.766;2023-06-22T10:35:44;7.67;;;5.70;;
44272;SDS011;29964;17.182;-96.766;2023-06-22T10:38:11;14.57;;;7.97;;
44272;SDS011;29964;17.182;-96.766;2023-06-22T10:40:37;11.90;;;7.27;;
44272;SDS011;29964;17.182;-96.766;2023-06-22T10:43:05;8.87;;;6.43;;
44272;SDS011;29964;17.182;-96.766;2023-06-22T10:45:31;12.63;;;5.13;;
44272;SDS011;29964;17.182;-96.766;2023-06-22T10:47:58;7.63;;;5.23;;
44272;SDS011;29964;17.182;-96.766;2023-06-22T10:50:25;5.97;;;4.60;;
44272;SDS011;29964;17.182;-96.766;2023-06-22T10:52:52;6.13;;;4.90;;
44272;SDS011;29964;17.182;-96.766;2023-06-22T10:55:18;11.40;;;5.57;;
44272;SDS011;29964;17.182;-96.766;2023-06-22T10:57:45;6.40;;;5.17;;
44272;SDS011;29964;17.182;-96.766;2023-06-22T11:00:13;9.57;;;6.20;;
44272;SDS011;29964;17.182;-96.766;2023-06-22T11:02:40;5.93;;;5.13;;
44272;SDS011;29964;17.182;-96.766;2023-06-22T11:05:07;7.33;;;6.17;;
44272;SDS011;29964;17.182;-96.766;2023-06-22T11:07:34;7.13;;;6.23;;
44272;SDS011;29964;17.182;-96.766;2023-06-22T11:10:01;6.30;;;5.57;;
44272;SDS011;29964;17.182;-96.766;2023-06-22T11:12:28;7.93;;;5.87;;
44272;SDS011;29964;17.182;-96.766;2023-06-22T11:14:54;8.90;;;5.43;;
44272;SDS011;29964;17.182;-96.766;2023-06-22T11:17:22;10.33;;;6.30;;
44272;SDS011;29964;17.182;-96.766;2023-06-22T11:19:49;10.40;;;6.20;;
44272;SDS011;29964;17.182;-96.766;2023-06-22T11:22:16;9.93;;;6.90;;
44272;SDS011;29964;17.182;-96.766;2023-06-22T11:24:42;8.47;;;5.77;;
44272;SDS011;29964;17.182;-96.766;2023-06-22T11:27:09;8.13;;;6.60;;
44272;SDS011;29964;17.182;-96.766;2023-06-22T11:29:36;11.07;;;8.37;;
44272;SDS011;29964;17.182;-96.766;2023-06-22T11:32:05;9.33;;;7.40;;
44272;SDS011;29964;17.182;-96.766;2023-06-22T11:34:33;8.10;;;6.53;;
44272;SDS011;29964;17.182;-96.766;2023-06-22T11:36:59;11.77;;;8.13;;
44272;SDS011;29964;17.182;-96.766;2023-06-22T11:39:26;10.73;;;7.63;;
44272;SDS011;29964;17.182;-96.766;2023-06-22T11:41:53;9.80;;;7.43;;
44272;SDS011;29964;17.182;-96.766;2023-06-22T11:44:20;9.20;;;6.47;;
44272;SDS011;29964;17.182;-96.766;2023-06-22T11:46:47;15.40;;;7.97;;
44272;SDS011;29964;17.182;-96.766;2023-06-22T11:49:13;10.73;;;7.60;;
44272;SDS011;29964;17.182;-96.766;2023-06-22T11:51:40;9.70;;;6.30;;
44272;SDS011;29964;17.182;-96.766;2023-06-22T11:54:07;9.00;;;6.50;;
44272;SDS011;29964;17.182;-96.766;2023-06-22T12:07:25;10.30;;;6.03;;
44272;SDS011;29964;17.182;-96.766;2023-06-22T12:09:51;7.93;;;5.63;;
44272;SDS011;29964;17.182;-96.766;2023-06-22T12:12:18;11.17;;;6.80;;
44272;SDS011;29964;17.182;-96.766;2023-06-22T12:14:45;12.57;;;7.80;;
44272;SDS011;29964;17.182;-96.766;2023-06-22T12:17:12;12.33;;;5.60;;
44272;SDS011;29964;17.182;-96.766;2023-06-22T12:19:38;10.37;;;7.13;;
44272;SDS011;29964;17.182;-96.766;2023-06-22T12:22:05;11.40;;;6.63;;
44272;SDS011;29964;17.182;-96.766;2023-06-22T12:24:32;14.27;;;7.87;;
44272;SDS011;29964;17.182;-96.766;2023-06-22T12:26:59;9.80;;;7.57;;
44272;SDS011;29964;17.182;-96.766;2023-06-22T12:29:27;9.30;;;6.97;;
44272;SDS011;29964;17.182;-96.766;2023-06-22T12:31:54;9.33;;;7.47;;
44272;SDS011;29964;17.182;-96.766;2023-06-22T12:34:21;11.67;;;7.63;;
44272;SDS011;29964;17.182;-96.766;2023-06-22T12:36:48;15.07;;;9.20;;
44272;SDS011;29964;17.182;-96.766;2023-06-22T12:39:15;14.60;;;8.23;;
44272;SDS011;29964;17.182;-96.766;2023-06-22T12:41:42;21.50;;;8.73;;
44272;SDS011;29964;17.182;-96.766;2023-06-22T12:44:09;12.70;;;9.37;;
44272;SDS011;29964;17.182;-96.766;2023-06-22T12:46:36;11.93;;;8.47;;
44272;SDS011;29964;17.182;-96.766;2023-06-22T12:49:04;25.73;;;10.10;;
44272;SDS011;29964;17.182;-96.766;2023-06-22T12:51:31;13.20;;;10.60;;
44272;SDS011;29964;17.182;-96.766;2023-06-22T12:53:57;13.37;;;10.57;;
44272;SDS011;29964;17.182;-96.766;2023-06-22T12:56:24;10.50;;;8.93;;
44272;SDS011;29964;17.182;-96.766;2023-06-22T12:58:51;13.47;;;8.90;;
44272;SDS011;29964;17.182;-96.766;2023-06-22T13:01:18;12.43;;;9.00;;
44272;SDS011;29964;17.182;-96.766;2023-06-22T13:03:45;12.07;;;9.97;;
44272;SDS011;29964;17.182;-96.766;2023-06-22T13:06:11;24.00;;;9.80;;
44272;SDS011;29964;17.182;-96.766;2023-06-22T13:08:38;10.77;;;9.13;;
44272;SDS011;29964;17.182;-96.766;2023-06-22T13:11:05;17.50;;;10.30;;
44272;SDS011;29964;17.182;-96.766;2023-06-22T13:13:32;20.33;;;9.63;;
44272;SDS011;29964;17.182;-96.766;2023-06-22T13:15:59;11.13;;;9.17;;
44272;SDS011;29964;17.182;-96.766;2023-06-22T13:18:26;12.90;;;9.53;;
44272;SDS011;29964;17.182;-96.766;2023-06-22T13:20:53;14.43;;;9.30;;
44272;SDS011;29964;17.182;-96.766;2023-06-22T13:23:22;16.00;;;10.77;;
44272;SDS011;29964;17.182;-96.766;2023-06-22T13:25:49;16.07;;;11.13;;
44272;SDS011;29964;17.182;-96.766;2023-06-22T13:28:16;15.80;;;11.03;;
44272;SDS011;29964;17.182;-96.766;2023-06-22T13:30:43;14.80;;;10.47;;
44272;SDS011;29964;17.182;-96.766;2023-06-22T13:33:12;15.77;;;10.93;;
44272;SDS011;29964;17.182;-96.766;2023-06-22T13:35:40;26.87;;;11.10;;
44272;SDS011;29964;17.182;-96.766;2023-06-22T13:38:09;17.83;;;12.70;;
44272;SDS011;29964;17.182;-96.766;2023-06-22T13:40:37;15.57;;;11.93;;
44272;SDS011;29964;17.182;-96.766;2023-06-22T13:43:04;18.17;;;11.90;;
44272;SDS011;29964;17.182;-96.766;2023-06-22T13:45:31;16.27;;;11.53;;
44272;SDS011;29964;17.182;-96.766;2023-06-22T13:47:58;12.53;;;9.70;;
44272;SDS011;29964;17.182;-96.766;2023-06-22T13:50:25;15.07;;;9.20;;
44272;SDS011;29964;17.182;-96.766;2023-06-22T13:52:52;15.40;;;12.47;;
44272;SDS011;29964;17.182;-96.766;2023-06-22T13:55:18;15.33;;;8.77;;
44272;SDS011;29964;17.182;-96.766;2023-06-22T13:57:46;14.33;;;9.77;;
44272;SDS011;29964;17.182;-96.766;2023-06-22T14:00:13;12.50;;;8.63;;
44272;SDS011;29964;17.182;-96.766;2023-06-22T14:02:40;11.97;;;7.97;;
44272;SDS011;29964;17.182;-96.766;2023-06-22T14:05:07;13.50;;;9.37;;
44272;SDS011;29964;17.182;-96.766;2023-06-22T14:07:34;9.83;;;7.90;;
44272;SDS011;29964;17.182;-96.766;2023-06-22T14:10:01;10.87;;;7.57;;
44272;SDS011;29964;17.182;-96.766;2023-06-22T14:12:28;8.67;;;7.43;;
44272;SDS011;29964;17.182;-96.766;2023-06-22T14:14:54;19.27;;;8.30;;
44272;SDS011;29964;17.182;-96.766;2023-06-22T14:17:22;11.50;;;8.40;;
44272;SDS011;29964;17.182;-96.766;2023-06-22T14:19:52;13.47;;;8.63;;
44272;SDS011;29964;17.182;-96.766;2023-06-22T14:22:19;23.83;;;8.27;;
44272;SDS011;29964;17.182;-96.766;2023-06-22T14:24:47;17.20;;;7.70;;
44272;SDS011;29964;17.182;-96.766;2023-06-22T14:27:14;9.60;;;7.53;;
44272;SDS011;29964;17.182;-96.766;2023-06-22T14:29:41;10.93;;;6.97;;
44272;SDS011;29964;17.182;-96.766;2023-06-22T14:32:08;8.47;;;6.70;;
44272;SDS011;29964;17.182;-96.766;2023-06-22T14:34:35;11.77;;;8.13;;
44272;SDS011;29964;17.182;-96.766;2023-06-22T14:37:06;9.47;;;6.63;;
44272;SDS011;29964;17.182;-96.766;2023-06-22T14:39:35;21.47;;;7.67;;
44272;SDS011;29964;17.182;-96.766;2023-06-22T14:42:02;9.37;;;7.00;;
44272;SDS011;29964;17.182;-96.766;2023-06-22T14:44:31;9.03;;;6.73;;